Lidderdale, Iowa
Current Conditions -  °F | °C
As of 12:55 PM on Friday 31 Oct 2014 (Local Time) from KCIN Reporting Station
Clear Clear  
Wind Chill: 29°   Ceiling: Unl
Heat Index: 37°   Visibility: 10mi
Dew Point: 19°   Wind: 15mph
Humidity: 48%   Direction: 10°N
Pressure: 30.53"   Gusts: NA
Location:  42.12°N, 94.78°W
Report Text: KCIN 311755Z AUTO 01013KT 10SM CLR 03/M07 A3053 RMK AO2
Loading
Personal Weather Stations






























Interactive Weather Map
Tropical Storm Tracking
New forecast layout! Learn more

10-Day Weather Forecast

Advertisements
Track Severe Weather on mobile